createdAt,value
2018-03-31T00:00:37.191Z,12.50
2018-03-31T00:03:04.863Z,10.87
2018-03-31T00:05:31.943Z,13.27
2018-03-31T00:07:59.163Z,11.93
2018-03-31T00:10:26.251Z,13.10
2018-03-31T00:12:53.531Z,11.00
2018-03-31T00:15:20.718Z,10.63
2018-03-31T00:17:47.969Z,13.67
2018-03-31T00:20:15.051Z,12.30
2018-03-31T00:22:42.171Z,12.13
2018-03-31T00:25:09.303Z,12.27
2018-03-31T00:27:36.374Z,12.00
2018-03-31T00:30:04.456Z,12.17
2018-03-31T00:32:31.568Z,14.33
2018-03-31T00:34:58.732Z,12.43
2018-03-31T00:37:25.800Z,12.83
2018-03-31T00:39:52.955Z,12.00
2018-03-31T00:42:20.199Z,13.17
2018-03-31T00:44:47.331Z,12.20
2018-03-31T00:47:14.400Z,13.30
2018-03-31T00:49:41.649Z,13.80
2018-03-31T00:52:08.709Z,13.47
2018-03-31T00:54:35.851Z,13.07
2018-03-31T00:57:02.951Z,13.40
2018-03-31T00:59:30.087Z,11.50
2018-03-31T01:01:57.228Z,13.80
2018-03-31T01:04:24.339Z,13.80
2018-03-31T01:06:51.489Z,13.80
2018-03-31T01:09:18.553Z,13.90
2018-03-31T01:11:45.711Z,14.83
2018-03-31T01:14:12.826Z,13.33
2018-03-31T01:16:39.924Z,12.80
2018-03-31T01:19:07.051Z,13.80
2018-03-31T01:21:34.575Z,14.80
2018-03-31T01:24:01.866Z,12.93
2018-03-31T01:26:29.076Z,14.27
2018-03-31T01:28:56.245Z,12.90
2018-03-31T01:31:23.451Z,15.43
2018-03-31T01:33:50.514Z,12.90
2018-03-31T01:36:17.666Z,13.50
2018-03-31T01:38:44.915Z,13.50
2018-03-31T01:41:12.240Z,13.77
2018-03-31T01:43:39.493Z,13.80
2018-03-31T01:46:06.659Z,13.93
2018-03-31T01:48:33.868Z,13.33
2018-03-31T01:51:01.767Z,13.13
2018-03-31T01:53:28.919Z,14.00
2018-03-31T01:55:56.878Z,13.03
2018-03-31T01:58:24.066Z,13.10
2018-03-31T02:00:51.172Z,14.00
2018-03-31T02:03:18.222Z,15.10
2018-03-31T02:05:45.298Z,14.23
2018-03-31T02:08:12.478Z,14.93
2018-03-31T02:10:39.539Z,14.27
2018-03-31T02:13:06.641Z,14.85
2018-03-31T02:15:33.778Z,15.38
2018-03-31T02:18:01.017Z,13.95
2018-03-31T02:20:28.064Z,12.63
2018-03-31T02:22:55.939Z,13.53
2018-03-31T02:25:23.106Z,14.55
2018-03-31T02:27:50.459Z,12.98
2018-03-31T02:30:17.712Z,13.63
2018-03-31T02:32:44.862Z,12.75
2018-03-31T02:35:12.051Z,14.50
2018-03-31T02:37:39.146Z,14.70
2018-03-31T02:40:06.421Z,12.88
2018-03-31T02:42:33.594Z,13.77
2018-03-31T02:45:00.806Z,14.75
2018-03-31T02:47:27.969Z,13.70
2018-03-31T02:49:55.050Z,15.33
2018-03-31T02:52:22.171Z,14.40
2018-03-31T02:54:49.326Z,14.60
2018-03-31T02:57:16.371Z,13.00
2018-03-31T02:59:43.609Z,15.50
2018-03-31T03:02:10.814Z,14.47
2018-03-31T03:04:38.607Z,14.10
2018-03-31T03:07:05.704Z,15.18
2018-03-31T03:09:32.820Z,15.53
2018-03-31T03:12:00.036Z,14.38
2018-03-31T03:14:27.143Z,15.47
2018-03-31T03:16:54.402Z,14.43
2018-03-31T03:19:21.447Z,15.43
2018-03-31T03:21:48.557Z,14.40
2018-03-31T03:24:15.689Z,14.07
2018-03-31T03:26:42.924Z,15.60
2018-03-31T03:29:10.158Z,14.70
2018-03-31T03:31:37.248Z,16.33
2018-03-31T03:34:04.335Z,15.43
2018-03-31T03:36:31.609Z,12.85
2018-03-31T03:38:58.739Z,14.15
2018-03-31T03:41:25.919Z,13.53
2018-03-31T03:43:53.164Z,13.63
2018-03-31T03:46:20.367Z,13.70
2018-03-31T03:48:47.448Z,13.80
2018-03-31T03:51:14.560Z,14.17
2018-03-31T03:53:41.910Z,15.30
2018-03-31T03:56:09.029Z,14.35
2018-03-31T03:58:36.130Z,14.17
2018-03-31T04:01:03.175Z,13.97
2018-03-31T04:03:30.478Z,14.10
2018-03-31T04:05:57.823Z,14.07
2018-03-31T04:08:25.200Z,14.70
2018-03-31T04:10:52.340Z,13.70
2018-03-31T04:13:19.436Z,13.27
2018-03-31T04:15:46.635Z,13.03
2018-03-31T04:18:13.772Z,12.40
2018-03-31T04:20:40.851Z,13.70
2018-03-31T04:23:08.191Z,13.83
2018-03-31T04:25:35.260Z,15.97
2018-03-31T04:28:02.394Z,12.90
2018-03-31T04:30:29.491Z,12.80
2018-03-31T04:32:56.693Z,16.00
2018-03-31T04:35:24.027Z,14.10
2018-03-31T04:37:51.183Z,15.27
2018-03-31T04:40:18.350Z,14.57
2018-03-31T04:42:45.551Z,13.33
2018-03-31T04:45:12.600Z,13.40
2018-03-31T04:47:39.800Z,13.40
2018-03-31T04:50:06.890Z,14.30
2018-03-31T04:52:34.067Z,13.77
2018-03-31T04:55:01.270Z,14.73
2018-03-31T04:57:28.918Z,14.17
2018-03-31T04:59:55.980Z,13.80
2018-03-31T05:02:23.225Z,13.00
2018-03-31T05:04:50.356Z,14.50
2018-03-31T05:07:17.522Z,13.30
2018-03-31T05:09:44.672Z,14.73
2018-03-31T05:12:11.824Z,13.97
2018-03-31T05:14:38.892Z,13.13
2018-03-31T05:17:06.016Z,12.90
2018-03-31T05:19:33.379Z,14.97
2018-03-31T05:22:01.020Z,12.57
2018-03-31T05:24:28.067Z,13.60
2018-03-31T05:26:55.285Z,14.73
2018-03-31T05:29:22.380Z,14.53
2018-03-31T05:31:49.756Z,14.57
2018-03-31T05:34:16.913Z,13.67
2018-03-31T05:36:44.052Z,13.07
2018-03-31T05:39:11.289Z,14.17
2018-03-31T05:41:38.452Z,13.30
2018-03-31T05:44:05.713Z,13.20
2018-03-31T05:46:32.757Z,12.30
2018-03-31T05:48:59.812Z,14.23
2018-03-31T05:51:26.950Z,14.27
2018-03-31T05:53:54.119Z,13.70
2018-03-31T05:56:21.180Z,14.57
2018-03-31T05:58:48.282Z,12.33
2018-03-31T06:01:16.369Z,12.90
2018-03-31T06:03:43.499Z,13.90
2018-03-31T06:06:10.553Z,14.13
2018-03-31T06:08:37.731Z,14.20
2018-03-31T06:11:04.796Z,13.87
2018-03-31T06:13:31.849Z,12.50
2018-03-31T06:15:58.964Z,12.40
2018-03-31T06:18:26.235Z,13.67
2018-03-31T06:20:53.302Z,16.07
2018-03-31T06:23:20.363Z,14.20
2018-03-31T06:25:47.614Z,15.97
2018-03-31T06:28:14.659Z,14.67
2018-03-31T06:30:41.789Z,15.00
2018-03-31T06:33:08.868Z,15.30
2018-03-31T06:35:35.942Z,14.90
2018-03-31T06:38:03.122Z,14.33
2018-03-31T06:40:30.179Z,14.43
2018-03-31T06:42:57.358Z,15.50
2018-03-31T06:45:24.481Z,14.57
2018-03-31T06:47:51.751Z,15.47
2018-03-31T06:50:18.992Z,12.83
2018-03-31T06:52:46.781Z,13.43
2018-03-31T06:55:18.111Z,15.00
2018-03-31T06:57:45.358Z,14.10
2018-03-31T07:00:12.515Z,14.53
2018-03-31T07:02:39.659Z,13.50
2018-03-31T07:05:06.793Z,15.97
2018-03-31T07:07:34.001Z,15.33
2018-03-31T07:10:01.136Z,14.27
2018-03-31T07:12:28.227Z,14.33
2018-03-31T07:14:55.530Z,13.90
2018-03-31T07:17:22.586Z,13.33
2018-03-31T07:19:49.771Z,13.80
2018-03-31T07:22:17.094Z,14.30
2018-03-31T07:24:45.191Z,14.70
2018-03-31T07:27:12.311Z,14.93
2018-03-31T07:29:39.699Z,13.13
2018-03-31T07:32:06.801Z,14.20
2018-03-31T07:34:34.080Z,13.87
2018-03-31T07:37:01.324Z,14.93
2018-03-31T07:39:28.671Z,14.43
2018-03-31T07:41:57.459Z,14.60
2018-03-31T07:44:24.547Z,14.33
2018-03-31T07:46:51.743Z,14.93
2018-03-31T07:49:18.836Z,14.97
2018-03-31T07:51:46.060Z,14.90
2018-03-31T07:54:14.042Z,15.50
2018-03-31T07:56:42.358Z,13.67
2018-03-31T07:59:09.888Z,15.40
2018-03-31T08:01:37.130Z,13.37
2018-03-31T08:04:08.005Z,14.03
2018-03-31T08:06:35.209Z,15.00
2018-03-31T08:09:02.362Z,15.10
2018-03-31T08:11:29.519Z,13.90
2018-03-31T08:13:56.767Z,14.30
2018-03-31T08:16:23.922Z,13.70
2018-03-31T08:18:51.615Z,13.73
2018-03-31T08:21:18.666Z,13.90
2018-03-31T08:23:45.781Z,14.90
2018-03-31T08:26:12.865Z,13.87
2018-03-31T08:28:40.041Z,13.80
2018-03-31T08:31:09.205Z,14.93
2018-03-31T08:33:37.333Z,14.47
2018-03-31T08:36:04.608Z,15.07
2018-03-31T08:38:31.703Z,15.07
2018-03-31T08:40:58.785Z,16.47
2018-03-31T08:43:27.288Z,16.37
2018-03-31T08:45:54.440Z,14.90
2018-03-31T08:48:21.640Z,15.77
2018-03-31T08:50:48.847Z,19.20
2018-03-31T08:53:16.772Z,19.57
2018-03-31T08:55:43.844Z,16.70
2018-03-31T08:58:10.934Z,16.27
2018-03-31T09:00:38.057Z,17.30
2018-03-31T09:03:05.251Z,16.50
2018-03-31T09:05:32.878Z,17.50
2018-03-31T09:08:02.189Z,17.87
2018-03-31T09:10:29.335Z,19.07
2018-03-31T09:12:56.480Z,17.03
2018-03-31T09:15:23.739Z,17.87
2018-03-31T09:17:51.921Z,18.10
2018-03-31T09:20:19.020Z,18.87
2018-03-31T09:22:46.211Z,19.97
2018-03-31T09:25:13.380Z,18.30
2018-03-31T09:27:40.513Z,19.50
2018-03-31T09:30:07.633Z,18.10
2018-03-31T09:32:34.917Z,19.30
2018-03-31T09:35:02.157Z,19.80
2018-03-31T09:37:29.327Z,19.33
2018-03-31T09:39:56.421Z,20.60
2018-03-31T09:42:23.490Z,21.13
2018-03-31T09:44:50.620Z,19.30
2018-03-31T09:47:18.263Z,20.77
2018-03-31T09:49:45.384Z,22.30
2018-03-31T09:52:12.535Z,22.30
2018-03-31T09:54:39.699Z,19.83
2018-03-31T09:57:07.101Z,21.07
2018-03-31T09:59:34.208Z,21.63
